createdAt,value
2022-11-01T00:03:24.787Z,18.83
2022-11-01T00:08:17.181Z,20.17
2022-11-01T00:13:09.336Z,24.13
2022-11-01T00:18:01.544Z,23.60
2022-11-01T00:22:53.708Z,23.30
2022-11-01T00:27:45.847Z,24.83
2022-11-01T00:32:38.055Z,22.77
2022-11-01T00:37:30.305Z,24.17
2022-11-01T00:42:22.964Z,21.63
2022-11-01T00:47:15.113Z,26.37
2022-11-01T00:52:07.292Z,24.17
2022-11-01T00:56:59.438Z,23.33
2022-11-01T01:01:51.783Z,24.07
2022-11-01T01:06:43.987Z,23.17
2022-11-01T01:11:36.178Z,25.10
2022-11-01T01:16:28.455Z,24.53
2022-11-01T01:21:20.667Z,22.47
2022-11-01T01:26:13.116Z,22.10
2022-11-01T01:31:09.494Z,22.17
2022-11-01T01:36:07.784Z,22.57
2022-11-01T01:41:19.611Z,22.40
2022-11-01T01:46:13.099Z,24.57
2022-11-01T01:51:10.008Z,25.73
2022-11-01T01:56:27.915Z,23.63
2022-11-01T02:01:20.110Z,25.27
2022-11-01T02:06:16.200Z,24.97
2022-11-01T02:11:12.137Z,26.17
2022-11-01T02:16:25.783Z,31.53
2022-11-01T02:21:41.847Z,28.40
2022-11-01T02:26:45.861Z,32.30
2022-11-01T02:32:02.061Z,38.17
2022-11-01T02:37:08.950Z,32.73
2022-11-01T02:42:23.876Z,29.50
2022-11-01T02:47:19.130Z,36.87
2022-11-01T02:52:15.177Z,34.70
2022-11-01T02:57:31.179Z,31.57
2022-11-01T03:02:41.717Z,30.03
2022-11-01T03:07:34.101Z,28.97
2022-11-01T03:17:47.636Z,28.33
2022-11-01T03:23:00.899Z,26.97
2022-11-01T03:27:55.201Z,24.17
2022-11-01T03:32:52.557Z,22.17
2022-11-01T03:37:48.129Z,20.23
2022-11-01T03:42:43.874Z,20.07
2022-11-01T03:47:39.466Z,19.07
2022-11-01T03:52:31.740Z,18.03
2022-11-01T03:57:24.028Z,17.57
2022-11-01T04:02:16.225Z,17.87
2022-11-01T04:07:08.633Z,17.77
2022-11-01T04:12:00.776Z,16.97
2022-11-01T04:17:12.682Z,16.37
2022-11-01T04:22:04.894Z,15.83
2022-11-01T04:26:57.073Z,16.10
2022-11-01T04:31:49.355Z,16.00
2022-11-01T04:36:41.626Z,16.60
2022-11-01T04:41:33.763Z,14.00
2022-11-01T04:46:26.071Z,16.23
2022-11-01T04:51:18.261Z,15.13
2022-11-01T04:56:13.593Z,14.83
2022-11-01T05:01:07.066Z,14.60
2022-11-01T05:06:00.660Z,14.90
2022-11-01T05:10:55.345Z,14.10
2022-11-01T05:15:59.527Z,13.63
2022-11-01T05:20:59.783Z,14.00
2022-11-01T05:25:54.131Z,14.17
2022-11-01T05:30:46.320Z,14.40
2022-11-01T05:35:38.455Z,14.53
2022-11-01T05:40:31.194Z,14.77
2022-11-01T05:45:23.578Z,14.47
2022-11-01T05:50:16.784Z,12.77
2022-11-01T05:55:10.185Z,14.03
2022-11-01T06:00:04.594Z,13.50
2022-11-01T06:05:04.311Z,15.37
2022-11-01T06:09:56.529Z,27.20
2022-11-01T06:14:48.725Z,24.77
2022-11-01T06:19:43.768Z,17.27
2022-11-01T06:24:36.009Z,15.10
2022-11-01T06:29:28.324Z,14.97
2022-11-01T06:34:22.961Z,15.67
2022-11-01T06:39:15.370Z,14.70
2022-11-01T06:44:08.164Z,18.43
2022-11-01T06:49:00.385Z,14.07
2022-11-01T06:53:52.559Z,33.50
2022-11-01T06:58:44.763Z,15.70
2022-11-01T07:03:39.875Z,13.50
2022-11-01T07:08:34.850Z,13.17
2022-11-01T07:13:38.277Z,12.97
2022-11-01T07:18:30.791Z,13.50
2022-11-01T07:23:25.998Z,15.23
2022-11-01T07:28:23.633Z,14.13
2022-11-01T07:33:19.020Z,10.80
2022-11-01T07:38:13.373Z,11.70
2022-11-01T07:43:10.576Z,10.10
2022-11-01T07:48:11.624Z,10.47
2022-11-01T07:53:10.040Z,10.57
2022-11-01T07:58:05.403Z,11.23
2022-11-01T08:03:10.389Z,9.60
2022-11-01T08:08:04.067Z,10.67
2022-11-01T08:13:17.032Z,9.77
2022-11-01T08:18:09.436Z,9.07
2022-11-01T08:23:02.045Z,10.20
2022-11-01T08:27:54.643Z,9.67
2022-11-01T08:32:52.890Z,10.00
2022-11-01T08:37:54.809Z,8.47
2022-11-01T08:42:49.668Z,9.10
2022-11-01T08:48:01.104Z,9.30
2022-11-01T08:52:59.017Z,9.50
2022-11-01T08:57:53.705Z,8.87
2022-11-01T09:02:48.591Z,13.97
2022-11-01T09:07:43.064Z,11.50
2022-11-01T09:12:57.841Z,10.57
2022-11-01T09:17:53.219Z,9.37
2022-11-01T09:22:45.899Z,10.00
2022-11-01T09:27:41.038Z,10.70
2022-11-01T09:32:35.636Z,10.10
2022-11-01T09:37:28.036Z,10.43
2022-11-01T09:42:36.992Z,9.07
2022-11-01T09:47:46.200Z,10.67
2022-11-01T09:52:40.784Z,10.37
2022-11-01T09:57:41.058Z,11.13
2022-11-01T10:02:54.436Z,10.77
2022-11-01T10:08:05.779Z,10.77
2022-11-01T10:13:37.783Z,11.47
2022-11-01T10:18:42.132Z,11.37
2022-11-01T10:23:57.530Z,11.33
2022-11-01T10:28:52.524Z,11.23
2022-11-01T10:34:02.716Z,10.47
2022-11-01T10:39:53.393Z,11.23
2022-11-01T10:44:43.869Z,10.93
2022-11-01T10:50:07.068Z,11.20
2022-11-01T10:55:05.501Z,11.80
2022-11-01T11:00:01.599Z,11.10
2022-11-01T11:04:54.003Z,11.33
2022-11-01T11:10:28.714Z,11.23
2022-11-01T11:15:44.891Z,10.77
2022-11-01T11:20:37.952Z,11.20
2022-11-01T11:25:37.425Z,10.83
2022-11-01T11:30:35.253Z,10.47
2022-11-01T11:35:54.305Z,10.97
2022-11-01T11:40:49.620Z,12.43
2022-11-01T11:46:12.313Z,10.47
2022-11-01T11:51:07.848Z,10.20
2022-11-01T11:56:09.320Z,10.70
2022-11-01T12:01:08.117Z,10.87
2022-11-01T12:06:11.179Z,9.33
2022-11-01T12:11:07.304Z,9.57
2022-11-01T12:22:21.549Z,10.30
2022-11-01T12:27:22.981Z,9.87
2022-11-01T12:32:25.303Z,9.90
2022-11-01T12:37:55.781Z,11.30
2022-11-01T12:43:09.861Z,9.80
2022-11-01T12:48:16.105Z,10.77
2022-11-01T12:53:16.525Z,9.23
2022-11-01T12:58:18.311Z,9.20
2022-11-01T13:03:39.171Z,10.03
2022-11-01T13:09:10.639Z,9.53
2022-11-01T13:14:55.441Z,10.30
2022-11-01T13:20:25.642Z,10.43
2022-11-01T13:25:46.711Z,12.47
2022-11-01T13:30:45.984Z,12.50
2022-11-01T13:36:15.744Z,12.43
2022-11-01T13:41:27.461Z,11.60
2022-11-01T13:46:43.927Z,11.97
2022-11-01T13:52:06.896Z,11.97
2022-11-01T13:57:09.162Z,12.90
2022-11-01T14:02:31.857Z,13.70
2022-11-01T14:07:46.934Z,13.60
2022-11-01T14:13:03.539Z,13.37
2022-11-01T14:18:20.755Z,14.27
2022-11-01T14:23:37.508Z,13.90
2022-11-01T14:28:31.519Z,14.40
2022-11-01T14:33:23.742Z,13.90
2022-11-01T14:38:21.686Z,15.03
2022-11-01T14:43:35.368Z,13.53
2022-11-01T14:48:44.182Z,13.37
2022-11-01T14:53:41.509Z,14.40
2022-11-01T14:58:37.365Z,14.20
2022-11-01T15:03:35.616Z,14.60
2022-11-01T15:08:53.039Z,14.03
2022-11-01T15:13:46.057Z,14.33
2022-11-01T15:18:47.051Z,15.33
2022-11-01T15:23:41.576Z,14.30
2022-11-01T15:29:06.287Z,16.47
2022-11-01T15:34:04.873Z,15.50
2022-11-01T15:39:04.985Z,15.43
2022-11-01T15:44:00.767Z,17.47
2022-11-01T15:49:04.505Z,18.30
2022-11-01T15:54:16.530Z,19.57
2022-11-01T15:59:34.343Z,19.97
2022-11-01T16:04:33.966Z,18.57
2022-11-01T16:09:55.276Z,18.87
2022-11-01T16:15:05.512Z,16.33
2022-11-01T16:20:04.804Z,18.47
2022-11-01T16:25:11.582Z,20.20
2022-11-01T16:30:33.978Z,20.33
2022-11-01T16:35:37.219Z,21.93
2022-11-01T16:40:34.252Z,23.00
2022-11-01T16:45:29.893Z,22.80
2022-11-01T16:50:27.487Z,23.93
2022-11-01T16:55:25.412Z,24.80
2022-11-01T17:00:20.937Z,23.47
2022-11-01T17:05:38.688Z,24.53
2022-11-01T17:10:39.155Z,26.03
2022-11-01T17:15:36.058Z,25.37
2022-11-01T17:20:38.262Z,26.00
2022-11-01T17:25:31.508Z,27.20
2022-11-01T17:35:59.926Z,26.63
2022-11-01T17:41:01.307Z,27.20
2022-11-01T17:46:00.004Z,27.60
2022-11-01T17:51:06.929Z,28.67
2022-11-01T17:56:01.762Z,29.40
2022-11-01T18:00:55.615Z,30.97
2022-11-01T18:05:57.953Z,32.50
2022-11-01T18:11:13.473Z,30.70
2022-11-01T18:16:49.711Z,32.50
2022-11-01T18:22:07.459Z,31.17
2022-11-01T18:27:03.197Z,33.23
2022-11-01T18:32:24.775Z,33.17
2022-11-01T18:37:47.124Z,31.67
2022-11-01T18:42:56.878Z,32.60
2022-11-01T18:48:05.219Z,37.43
2022-11-01T18:53:15.395Z,33.70
2022-11-01T18:58:44.897Z,30.27
2022-11-01T19:04:13.941Z,33.77
2022-11-01T19:09:30.516Z,43.27
2022-11-01T19:14:23.326Z,50.27
2022-11-01T19:19:26.900Z,40.53
2022-11-01T19:24:41.975Z,41.13
2022-11-01T19:29:39.812Z,108.13
2022-11-01T19:35:03.204Z,112.50
2022-11-01T19:40:02.666Z,66.13
2022-11-01T19:45:27.904Z,103.47
2022-11-01T19:50:41.031Z,47.10
2022-11-01T19:56:08.455Z,30.07
2022-11-01T20:01:11.257Z,27.83
2022-11-01T20:06:55.395Z,26.47
2022-11-01T20:12:10.478Z,35.23
2022-11-01T20:17:13.396Z,56.70
2022-11-01T20:22:09.191Z,39.43
2022-11-01T20:27:11.364Z,34.13
2022-11-01T20:32:10.203Z,29.67
2022-11-01T20:37:27.381Z,37.70
2022-11-01T20:42:27.620Z,28.47
2022-11-01T20:47:20.397Z,27.83
2022-11-01T20:52:39.780Z,25.30
2022-11-01T20:57:41.607Z,26.60
2022-11-01T21:02:34.795Z,26.20
2022-11-01T21:07:35.119Z,23.97
2022-11-01T21:12:41.864Z,22.80
2022-11-01T21:17:37.118Z,24.10
2022-11-01T21:22:30.497Z,22.93
2022-11-01T21:32:34.772Z,23.03
2022-11-01T21:37:29.708Z,21.27
2022-11-01T21:42:32.976Z,21.27
2022-11-01T21:47:30.021Z,21.50
2022-11-01T21:52:24.212Z,19.93
2022-11-01T21:57:17.570Z,20.53
2022-11-01T22:02:15.593Z,20.33
2022-11-01T22:07:09.271Z,18.50
2022-11-01T22:12:01.662Z,18.50
2022-11-01T22:16:57.179Z,19.03
2022-11-01T22:21:49.821Z,19.57
2022-11-01T22:27:10.224Z,22.63
2022-11-01T22:32:02.531Z,17.80
2022-11-01T22:37:42.163Z,16.93
2022-11-01T22:42:34.431Z,19.10
2022-11-01T22:47:33.393Z,18.93
2022-11-01T22:58:17.803Z,15.67
2022-11-01T23:04:25.103Z,15.17
2022-11-01T23:21:27.810Z,13.53
2022-11-01T23:26:39.285Z,13.67
2022-11-01T23:39:39.891Z,12.90
2022-11-01T23:44:37.217Z,12.83
2022-11-01T23:49:31.906Z,12.33
2022-11-01T23:54:42.136Z,15.63
2022-11-01T23:59:34.408Z,17.80
